Bookmark and Share
Track history (hours):
 

Honghai

Last reported at 2014-Apr-11 23:33 UTC. Time now 2014-Apr-20 00:56 UTC.
Position N 35°59' E 120°29'.
Warning: this ship's position is 8 days out of date.

Length 72 m; draft 4.6 m.

Type: Cargo ship. MMSI: 515501000.

NotesDate/timePositionNaut miles runAvg speedWind from/ knotsBaromVisibWave heightAir tempDewpointWater temp
2014-Apr-11 23:33N 35°59' E 120°29'7 0.4
2014-Apr-11 07:07N 36°00' E 120°20'2 4.1
2014-Apr-11 06:33N 35°58' E 120°21'3 2.1
2014-Apr-11 05:15N 35°57' E 120°25'0 0.0
2014-Apr-11 04:27N 35°57' E 120°25'0 0.0
2014-Apr-11 03:33N 35°57' E 120°25'0 0.1
2014-Apr-11 02:33N 35°57' E 120°24'0 0.0
2014-Apr-11 01:27N 35°57' E 120°24'0 0.0
2014-Apr-11 00:33N 35°57' E 120°24'0 0.0
2014-Apr-10 23:21N 35°57' E 120°25'0 0.1
2014-Apr-10 22:33N 35°57' E 120°24'0 0.0
2014-Apr-10 21:27N 35°57' E 120°24'0 0.0
2014-Apr-10 20:33N 35°57' E 120°24'0 0.0
2014-Apr-10 19:27N 35°57' E 120°24'0 0.0
2014-Apr-10 18:33N 35°57' E 120°24'0 0.0
2014-Apr-10 17:27N 35°57' E 120°24'0 0.0
2014-Apr-10 16:27N 35°57' E 120°24'0 0.0
2014-Apr-10 15:21N 35°57' E 120°24'0 0.0
2014-Apr-10 14:33N 35°57' E 120°24'0 0.0
2014-Apr-10 13:33N 35°57' E 120°24'0 0.0
2014-Apr-10 12:27N 35°57' E 120°24'0 0.1
2014-Apr-10 11:33N 35°57' E 120°25'3 1.7
2014-Apr-10 09:33N 35°56' E 120°28'  
2014-Apr-07 16:26N 30°04' E 122°35'18 9.6
2014-Apr-07 14:33N 29°47' E 122°28'10 9.6
2014-Apr-07 13:32N 29°38' E 122°23'4 0.1
2014-Apr-05 12:32N 29°34' E 122°22'1111.1
2014-Apr-05 11:31N 29°44' E 122°27'  

Dump ship's entire track history

sailing weather and tide predictions

Honghai — XUBU8 — position and weather